createdAt,value
2018-04-09T00:00:02.807Z,8.5
2018-04-09T00:15:03.118Z,8.1
2018-04-09T00:30:02.535Z,8
2018-04-09T00:45:02.844Z,7.8
2018-04-09T01:00:03.111Z,7.7
2018-04-09T01:15:02.438Z,7.3
2018-04-09T01:30:02.841Z,7.3
2018-04-09T01:45:03.125Z,7
2018-04-09T02:00:02.474Z,6.7
2018-04-09T02:15:05.261Z,6.8
2018-04-09T02:30:05.378Z,6.9
2018-04-09T02:45:42.389Z,6.4
2018-04-09T03:00:13.591Z,6.1
2018-04-09T03:15:27.184Z,5.9
2018-04-09T03:30:37.942Z,6
2018-04-09T03:45:02.366Z,5.8
2018-04-09T04:00:08.031Z,5.8
2018-04-09T04:15:02.476Z,5.5
2018-04-09T04:30:09.579Z,5.6
2018-04-09T04:45:04.223Z,5.8
2018-04-09T05:00:02.625Z,5.9
2018-04-09T05:15:03.215Z,5.9
2018-04-09T05:30:02.683Z,6.2
2018-04-09T05:45:02.996Z,6.3
2018-04-09T06:00:02.478Z,6.6
2018-04-09T06:15:02.764Z,7.1
2018-04-09T06:30:02.377Z,7.6
2018-04-09T06:45:02.707Z,8.2
2018-04-09T07:00:02.908Z,8.6
2018-04-09T07:15:03.220Z,9.4
2018-04-09T07:30:02.608Z,10
2018-04-09T07:45:16.815Z,10.6
2018-04-09T08:00:03.085Z,10.7
2018-04-09T08:15:02.482Z,11.5
2018-04-09T08:30:02.804Z,12.6
2018-04-09T08:45:03.106Z,13
2018-04-09T09:00:02.443Z,13.3
2018-04-09T09:15:02.700Z,14.8
2018-04-09T09:30:03.212Z,16.1
2018-04-09T09:45:02.553Z,17.1
2018-04-09T10:00:02.844Z,18.6
2018-04-09T10:15:03.106Z,19.4
2018-04-09T10:30:02.500Z,20.8
2018-04-09T10:45:02.823Z,22.2
2018-04-09T11:00:03.040Z,21.7
2018-04-09T11:15:02.411Z,22.8
2018-04-09T11:30:02.752Z,22.8
2018-04-09T11:45:03.070Z,22.2
2018-04-09T12:00:02.295Z,24
2018-04-09T12:15:02.674Z,23.5
2018-04-09T12:30:02.975Z,22.9
2018-04-09T12:45:02.372Z,23.8
2018-04-09T13:00:02.639Z,23.9
2018-04-09T13:15:02.992Z,23.2
2018-04-09T13:30:02.507Z,22.7
2018-04-09T13:45:02.883Z,23.1
2018-04-09T14:00:03.136Z,22.4
2018-04-09T14:15:02.455Z,22.8
2018-04-09T14:30:02.830Z,22.7
2018-04-09T14:45:03.118Z,22.2
2018-04-09T15:00:02.474Z,21.7
2018-04-09T15:15:02.714Z,21.8
2018-04-09T15:30:03.028Z,21.7
2018-04-09T15:45:02.343Z,21.6
2018-04-09T16:00:02.685Z,21.6
2018-04-09T16:15:02.932Z,21.4
2018-04-09T16:30:02.262Z,21.1
2018-04-09T16:45:02.523Z,20.9
2018-04-09T17:00:02.811Z,20.9
2018-04-09T17:15:03.088Z,19.3
2018-04-09T17:30:02.483Z,18.4
2018-04-09T17:45:02.767Z,18.1
2018-04-09T18:00:03.001Z,17.8
2018-04-09T18:15:02.338Z,17.2
2018-04-09T18:30:02.730Z,16.8
2018-04-09T18:45:02.934Z,16.3
2018-04-09T19:00:03.266Z,15.8
2018-04-09T19:15:02.553Z,15.1
2018-04-09T19:30:03.017Z,14.3
2018-04-09T19:45:02.278Z,14.1
2018-04-09T20:00:02.576Z,13.5
2018-04-09T20:15:02.789Z,12.6
2018-04-09T20:30:03.115Z,12.4
2018-04-09T20:45:02.400Z,11.8
2018-04-09T21:00:02.630Z,11.4
2018-04-09T21:15:02.886Z,11.2
2018-04-09T21:30:02.341Z,10.8
2018-04-09T21:45:02.665Z,10.7
2018-04-09T22:00:02.897Z,10.4
2018-04-09T22:15:03.166Z,10.2
2018-04-09T22:30:02.536Z,9.8
2018-04-09T22:45:02.786Z,9.8
2018-04-09T23:00:03.066Z,9.8
2018-04-09T23:15:02.363Z,9.1
2018-04-09T23:30:02.682Z,9.1
2018-04-09T23:45:02.994Z,8.8
